TimeCST,TemperatureF,Dew PointF,Humidity,Sea Level PressureIn,VisibilityMPH,Wind Direction,Wind SpeedMPH,Gust SpeedMPH,PrecipitationIn,Events,Conditions,WindDirDegrees,DateUTC
12:53 AM,-27.0,-34.1,69,30.33,10.0,Calm,Calm,-,N/A,,Clear,0,2014-01-08 06:53:00
1:53 AM,-26.0,-33.0,69,30.34,10.0,Calm,Calm,-,N/A,,Clear,0,2014-01-08 07:53:00
2:53 AM,-26.0,-34.1,66,30.35,10.0,Calm,Calm,-,N/A,,Clear,0,2014-01-08 08:53:00
3:53 AM,-27.9,-35.0,69,30.36,10.0,Calm,Calm,-,N/A,,Clear,0,2014-01-08 09:53:00
4:53 AM,-27.9,-35.0,69,30.37,10.0,Calm,Calm,-,N/A,,Clear,0,2014-01-08 10:53:00
5:53 AM,-29.0,-36.9,66,30.40,10.0,Calm,Calm,-,N/A,,Clear,0,2014-01-08 11:53:00
6:53 AM,-29.0,-36.9,66,30.40,10.0,Calm,Calm,-,N/A,,Clear,0,2014-01-08 12:53:00
7:53 AM,-29.9,-9999,N/A,30.45,10.0,Calm,Calm,-,N/A,,Clear,0,2014-01-08 13:53:00
8:53 AM,-25.1,-29.9,78,30.48,4.0,Calm,Calm,-,N/A,,Haze,0,2014-01-08 14:53:00
9:53 AM,-15.0,-20.0,78,30.50,10.0,Variable,3.5,-,N/A,,Clear,0,2014-01-08 15:53:00
10:53 AM,-11.0,-17.0,75,30.51,10.0,WSW,4.6,-,N/A,,Clear,250,2014-01-08 16:53:00
11:53 AM,-6.0,-14.1,68,30.50,10.0,WSW,5.8,-,N/A,,Clear,250,2014-01-08 17:53:00
12:53 PM,-4.0,-14.1,62,30.49,10.0,Variable,5.8,-,N/A,,Clear,0,2014-01-08 18:53:00
1:53 PM,-0.9,-13.0,57,30.48,10.0,Variable,3.5,-,N/A,,Clear,0,2014-01-08 19:53:00
2:53 PM,-0.0,-14.1,52,30.49,10.0,Variable,3.5,-,N/A,,Clear,0,2014-01-08 20:53:00
3:53 PM,-0.9,-15.0,52,30.52,10.0,WSW,3.5,-,N/A,,Clear,250,2014-01-08 21:53:00
4:53 PM,-6.0,-15.0,65,30.53,10.0,Calm,Calm,-,N/A,,Clear,0,2014-01-08 22:53:00
5:53 PM,-11.9,-18.0,74,30.54,10.0,Calm,Calm,-,N/A,,Clear,0,2014-01-08 23:53:00
6:53 PM,-18.9,-24.0,78,30.56,10.0,Calm,Calm,-,N/A,,Clear,0,2014-01-09 00:53:00
7:53 PM,-22.0,-27.9,74,30.56,10.0,Calm,Calm,-,N/A,,Clear,0,2014-01-09 01:53:00
8:53 PM,-22.0,-29.9,67,30.57,10.0,Calm,Calm,-,N/A,,Clear,0,2014-01-09 02:53:00
9:53 PM,-24.0,-29.9,74,30.56,10.0,Calm,Calm,-,N/A,,Clear,0,2014-01-09 03:53:00
10:53 PM,-26.0,-32.1,73,30.55,10.0,Calm,Calm,-,N/A,,Clear,0,2014-01-09 04:53:00
11:53 PM,-27.0,-33.0,73,30.53,10.0,Calm,Calm,-,N/A,,Clear,0,2014-01-09 05:53:00